Time;durP1;ratioP1;P1;durP2;ratioP2;P2;SDS_P1;SDS_P2;PMS_P1;PMS_P2;Temp;Humidity;BMP_temperature;BMP_pressure;BME280_temperature;BME280_humidity;BME280_pressure;Samples;Min_cycle;Max_cycle;Signal;HPM_P1;HPM_P2
2021/08/17 00:01:19;;;;;;;;;8.50;8.50;;;;;;;;6490893;39;9016;-63
2021/08/17 00:07:22;;;;;;;;;14.25;12.00;;;;;;;;6490471;39;9063;-62
2021/08/17 00:13:24;;;;;;;;;10.25;10.25;;;;;;;;6489890;46;8984;-61
2021/08/17 00:19:27;;;;;;;;;10.50;9.25;;;;;;;;6490129;46;8999;-61
2021/08/17 00:25:29;;;;;;;;;12.00;12.00;;;;;;;;6490574;39;8965;-62
2021/08/17 00:31:32;;;;;;;;;12.00;12.00;;;;;;;;6491305;39;9617;-62
2021/08/17 00:37:34;;;;;;;;;12.25;12.25;;;;;;;;6490409;31;8989;-61
2021/08/17 00:43:39;;;;;;;;;10.75;10.75;;;;;;;;6490243;46;8948;-62
2021/08/17 00:49:43;;;;;;;;;12.25;12.25;;;;;;;;6489613;31;9099;-62
2021/08/17 00:55:46;;;;;;;;;15.67;14.33;;;;;;;;6490517;31;9018;-61
2021/08/17 01:01:49;;;;;;;;;17.33;15.00;;;;;;;;6489295;46;8996;-60
2021/08/17 01:07:52;;;;;;;;;18.00;17.00;;;;;;;;6489641;39;8960;-60
2021/08/17 01:13:54;;;;;;;;;12.33;12.33;;;;;;;;6490692;31;9038;-61
2021/08/17 01:20:17;;;;;;;;;14.33;14.33;;;;;;;;6489624;39;8952;-62
2021/08/17 01:26:19;;;;;;;;;15.67;12.00;;;;;;;;6489980;46;8980;-61
2021/08/17 01:32:21;;;;;;;;;9.67;9.67;;;;;;;;6490255;39;8987;-61
2021/08/17 01:38:24;;;;;;;;;11.33;10.33;;;;;;;;6489638;39;8960;-62
2021/08/17 01:44:26;;;;;;;;;17.33;13.33;;;;;;;;6490436;31;9178;-62
2021/08/17 01:50:28;;;;;;;;;14.00;12.00;;;;;;;;6489400;46;8985;-62
2021/08/17 01:56:31;;;;;;;;;12.33;12.33;;;;;;;;6490420;31;8952;-62
2021/08/17 02:02:34;;;;;;;;;14.67;13.33;;;;;;;;6489272;46;9039;-62
2021/08/17 02:08:37;;;;;;;;;13.67;13.00;;;;;;;;6489076;46;8956;-61
2021/08/17 02:14:39;;;;;;;;;14.67;13.00;;;;;;;;6489161;46;8964;-62
2021/08/17 02:20:41;;;;;;;;;13.00;12.33;;;;;;;;6489522;39;9055;-62
2021/08/17 02:26:44;;;;;;;;;13.33;11.00;;;;;;;;6490334;39;9036;-61
2021/08/17 02:32:46;;;;;;;;;11.33;11.33;;;;;;;;6489391;39;9039;-61
2021/08/17 02:38:49;;;;;;;;;12.67;12.67;;;;;;;;6488665;39;8984;-62
2021/08/17 02:44:51;;;;;;;;;14.67;13.33;;;;;;;;6488981;46;8944;-61
2021/08/17 02:50:53;;;;;;;;;18.00;12.00;;;;;;;;6489674;31;9084;-61
2021/08/17 02:56:55;;;;;;;;;14.33;10.67;;;;;;;;6489897;39;9162;-63
2021/08/17 03:02:57;;;;;;;;;14.33;12.67;;;;;;;;6488928;31;9102;-60
2021/08/17 03:09:00;;;;;;;;;9.33;9.00;;;;;;;;6488743;47;9166;-61
2021/08/17 03:15:02;;;;;;;;;9.33;9.33;;;;;;;;6488596;39;9017;-62
2021/08/17 03:21:04;;;;;;;;;19.00;16.67;;;;;;;;6489596;31;8967;-62
2021/08/17 03:27:06;;;;;;;;;11.33;11.33;;;;;;;;6491567;31;9004;-61
2021/08/17 03:33:10;;;;;;;;;12.33;12.00;;;;;;;;6490967;39;9091;-62
2021/08/17 03:39:12;;;;;;;;;10.67;10.67;;;;;;;;6489812;39;9001;-62
2021/08/17 03:45:18;;;;;;;;;14.33;14.33;;;;;;;;6490730;46;9058;-63
2021/08/17 03:51:20;;;;;;;;;13.67;12.00;;;;;;;;6491411;31;9683;-63
2021/08/17 03:57:22;;;;;;;;;13.00;12.33;;;;;;;;6490819;39;8980;-63
2021/08/17 04:03:24;;;;;;;;;14.33;14.33;;;;;;;;6472108;39;9003;-62
2021/08/17 04:09:27;;;;;;;;;15.67;12.67;;;;;;;;6492729;39;9054;-62
2021/08/17 04:15:29;;;;;;;;;12.00;12.00;;;;;;;;6493899;39;8949;-62
2021/08/17 04:21:32;;;;;;;;;14.33;14.33;;;;;;;;6492888;39;9034;-63
2021/08/17 04:27:35;;;;;;;;;14.33;12.67;;;;;;;;6492763;39;8978;-62
2021/08/17 04:33:37;;;;;;;;;12.33;11.00;;;;;;;;6505757;36;9023;-62
2021/08/17 04:39:39;;;;;;;;;13.67;12.33;;;;;;;;6492300;31;9065;-62
2021/08/17 04:45:42;;;;;;;;;11.67;11.67;;;;;;;;6493339;39;8930;-63
2021/08/17 04:51:45;;;;;;;;;13.00;11.33;;;;;;;;6492672;39;8981;-63
2021/08/17 04:57:52;;;;;;;;;12.67;12.67;;;;;;;;6492248;39;8970;-61
2021/08/17 05:03:58;;;;;;;;;14.75;12.50;;;;;;;;6492769;46;8977;-61
2021/08/17 05:10:01;;;;;;;;;14.67;13.67;;;;;;;;6492429;31;8963;-63
2021/08/17 05:16:03;;;;;;;;;11.00;10.67;;;;;;;;6492776;39;8951;-62
2021/08/17 05:22:05;;;;;;;;;11.00;11.00;;;;;;;;6492612;39;8994;-60
2021/08/17 05:28:09;;;;;;;;;16.75;12.50;;;;;;;;6491856;39;9073;-59
2021/08/17 05:34:11;;;;;;;;;13.00;12.75;;;;;;;;6492674;39;9563;-59
2021/08/17 05:40:14;;;;;;;;;11.75;11.00;;;;;;;;6490815;46;8955;-59
2021/08/17 05:46:16;;;;;;;;;12.67;12.67;;;;;;;;6491191;39;8960;-58
2021/08/17 05:52:18;;;;;;;;;12.25;12.25;;;;;;;;6490549;39;9568;-59
2021/08/17 05:58:20;;;;;;;;;15.25;12.50;;;;;;;;6488702;31;9193;-58
2021/08/17 06:04:24;;;;;;;;;12.50;12.50;;;;;;;;6488295;39;8996;-59
2021/08/17 06:10:26;;;;;;;;;12.00;11.00;;;;;;;;6485852;46;9019;-58
2021/08/17 06:16:29;;;;;;;;;9.75;9.75;;;;;;;;6484717;39;8996;-58
2021/08/17 06:22:32;;;;;;;;;11.25;11.25;;;;;;;;6484039;39;9163;-58
2021/08/17 06:28:35;;;;;;;;;10.25;9.00;;;;;;;;6485158;46;9604;-59
2021/08/17 06:34:40;;;;;;;;;8.00;7.75;;;;;;;;6484894;39;9010;-60
2021/08/17 06:40:42;;;;;;;;;9.75;9.25;;;;;;;;6485515;46;8991;-59
2021/08/17 06:46:46;;;;;;;;;10.00;10.00;;;;;;;;6482739;39;9086;-59
2021/08/17 06:52:48;;;;;;;;;10.75;10.75;;;;;;;;6482840;39;9024;-57
2021/08/17 06:58:50;;;;;;;;;10.25;10.00;;;;;;;;6481663;47;9067;-58
2021/08/17 07:04:53;;;;;;;;;11.25;8.75;;;;;;;;6484600;39;9047;-60
2021/08/17 07:10:55;;;;;;;;;10.00;9.00;;;;;;;;6482831;39;9115;-61
2021/08/17 07:16:59;;;;;;;;;11.25;11.25;;;;;;;;6484411;47;8987;-59
2021/08/17 07:23:01;;;;;;;;;11.25;11.25;;;;;;;;6483648;47;9550;-59
2021/08/17 07:29:04;;;;;;;;;13.00;13.00;;;;;;;;6484520;39;8981;-59
2021/08/17 07:35:09;;;;;;;;;12.00;9.75;;;;;;;;6485852;46;9007;-59
2021/08/17 07:41:11;;;;;;;;;10.00;10.00;;;;;;;;6486643;31;9091;-59
2021/08/17 07:47:13;;;;;;;;;11.75;10.00;;;;;;;;6486910;39;9019;-58
2021/08/17 07:53:17;;;;;;;;;10.25;10.00;;;;;;;;6485525;39;9030;-60
2021/08/17 07:59:19;;;;;;;;;9.00;9.00;;;;;;;;6483737;39;9030;-59
2021/08/17 08:05:22;;;;;;;;;9.00;9.00;;;;;;;;6479039;39;9014;-59
2021/08/17 08:11:27;;;;;;;;;9.50;9.50;;;;;;;;6478218;46;9105;-58
2021/08/17 08:17:29;;;;;;;;;12.00;10.50;;;;;;;;6483182;39;9017;-59
2021/08/17 08:23:32;;;;;;;;;10.75;9.25;;;;;;;;6483633;39;9004;-60
2021/08/17 08:29:34;;;;;;;;;14.25;11.75;;;;;;;;6483533;46;9114;-58
2021/08/17 08:35:36;;;;;;;;;12.75;11.50;;;;;;;;6485047;31;8968;-58
2021/08/17 08:41:39;;;;;;;;;12.75;12.75;;;;;;;;6484949;46;9045;-61
2021/08/17 08:47:44;;;;;;;;;9.75;8.75;;;;;;;;6486824;46;8941;-60
2021/08/17 08:53:47;;;;;;;;;9.00;9.00;;;;;;;;6486199;46;8987;-59
2021/08/17 08:59:49;;;;;;;;;11.25;11.25;;;;;;;;6486796;39;8968;-59
2021/08/17 09:05:53;;;;;;;;;7.00;7.00;;;;;;;;6485805;46;9071;-58
2021/08/17 09:11:59;;;;;;;;;6.75;6.75;;;;;;;;6486852;39;9043;-59
2021/08/17 09:18:10;;;;;;;;;9.00;8.00;;;;;;;;6487756;31;9082;-60
2021/08/17 09:24:26;;;;;;;;;9.50;9.50;;;;;;;;6486892;31;9051;-59
2021/08/17 09:30:31;;;;;;;;;26.50;26.50;;;;;;;;6486456;39;8983;-59
2021/08/17 09:36:42;;;;;;;;;6.00;6.00;;;;;;;;6480511;39;9068;-60
2021/08/17 09:42:45;;;;;;;;;8.25;8.00;;;;;;;;6480184;31;8975;-58
2021/08/17 09:48:47;;;;;;;;;5.00;5.00;;;;;;;;6481410;39;9021;-59
2021/08/17 09:54:49;;;;;;;;;7.50;5.00;;;;;;;;6482192;46;8983;-58
2021/08/17 10:00:58;;;;;;;;;13.00;9.00;;;;;;;;6485964;39;9104;-58
2021/08/17 10:07:02;;;;;;;;;5.25;5.25;;;;;;;;6486783;39;8987;-58
2021/08/17 10:13:08;;;;;;;;;5.75;5.75;;;;;;;;6487657;31;8993;-58
2021/08/17 10:19:12;;;;;;;;;7.75;6.25;;;;;;;;6485104;39;9102;-59
2021/08/17 10:25:17;;;;;;;;;5.00;5.00;;;;;;;;6482615;46;9193;-59
2021/08/17 10:31:25;;;;;;;;;8.50;8.50;;;;;;;;6484075;39;9016;-58
2021/08/17 10:37:27;;;;;;;;;8.00;7.75;;;;;;;;6484198;31;9077;-60
2021/08/17 10:43:29;;;;;;;;;7.50;7.50;;;;;;;;6483473;39;9626;-58
2021/08/17 10:49:35;;;;;;;;;8.25;8.25;;;;;;;;6485260;39;9039;-57
2021/08/17 10:55:38;;;;;;;;;3.00;3.00;;;;;;;;6484640;31;9114;-59
2021/08/17 11:01:46;;;;;;;;;9.75;9.75;;;;;;;;6484517;39;8995;-59
2021/08/17 11:07:49;;;;;;;;;35.75;30.75;;;;;;;;6486385;39;8988;-59
2021/08/17 11:14:04;;;;;;;;;3.50;3.50;;;;;;;;6483842;39;9088;-59
2021/08/17 11:20:07;;;;;;;;;10.50;8.75;;;;;;;;6484985;39;9132;-58
2021/08/17 11:26:09;;;;;;;;;3.75;3.00;;;;;;;;6489202;39;9623;-57
2021/08/17 11:32:39;;;;;;;;;5.25;4.00;;;;;;;;6488380;47;8992;-59
2021/08/17 11:38:41;;;;;;;;;13.25;11.25;;;;;;;;6488756;31;8984;-59
2021/08/17 11:44:50;;;;;;;;;5.00;4.50;;;;;;;;6489223;31;9022;-59
2021/08/17 11:50:52;;;;;;;;;7.00;4.25;;;;;;;;6487010;39;9698;-61
2021/08/17 11:56:59;;;;;;;;;5.50;3.25;;;;;;;;6489233;31;8971;-57
2021/08/17 12:03:05;;;;;;;;;8.75;7.50;;;;;;;;6491542;31;9155;-61
2021/08/17 12:09:25;;;;;;;;;6.75;5.75;;;;;;;;6490372;39;9150;-59
2021/08/17 12:15:40;;;;;;;;;4.25;4.25;;;;;;;;6490445;39;9022;-59
2021/08/17 12:21:43;;;;;;;;;6.00;6.00;;;;;;;;6491225;39;8997;-58
2021/08/17 12:27:58;;;;;;;;;7.50;7.50;;;;;;;;6491270;31;9150;-58
2021/08/17 12:34:04;;;;;;;;;6.50;6.50;;;;;;;;6490654;31;9029;-60
2021/08/17 12:40:11;;;;;;;;;6.25;6.25;;;;;;;;6490861;39;9107;-58
2021/08/17 12:46:15;;;;;;;;;5.00;5.00;;;;;;;;6490325;31;8979;-59
2021/08/17 12:52:39;;;;;;;;;12.50;10.75;;;;;;;;6487736;46;9123;-58
2021/08/17 12:58:46;;;;;;;;;5.00;5.00;;;;;;;;6489114;39;9037;-58
2021/08/17 13:04:48;;;;;;;;;5.75;4.75;;;;;;;;6488605;31;9024;-59
2021/08/17 13:10:50;;;;;;;;;7.00;7.00;;;;;;;;6488423;39;8979;-60
2021/08/17 13:16:52;;;;;;;;;10.50;10.50;;;;;;;;6491100;31;8979;-58
2021/08/17 13:22:55;;;;;;;;;7.00;7.00;;;;;;;;6490518;39;8930;-58
2021/08/17 13:28:57;;;;;;;;;6.00;5.00;;;;;;;;6490052;46;8941;-58
2021/08/17 13:35:00;;;;;;;;;5.25;5.25;;;;;;;;6489252;39;9010;-58
2021/08/17 13:41:02;;;;;;;;;6.00;6.00;;;;;;;;6488700;39;8996;-57
2021/08/17 13:47:05;;;;;;;;;5.75;5.75;;;;;;;;6486688;39;8971;-59
2021/08/17 13:53:07;;;;;;;;;8.75;8.00;;;;;;;;6484325;39;9023;-58
2021/08/17 13:59:12;;;;;;;;;9.50;9.50;;;;;;;;6487117;39;8960;-58
2021/08/17 14:05:14;;;;;;;;;7.75;7.75;;;;;;;;6489432;31;9127;-59
2021/08/17 14:11:20;;;;;;;;;8.50;8.50;;;;;;;;6489808;39;8999;-60
2021/08/17 14:17:22;;;;;;;;;17.75;14.75;;;;;;;;6489395;39;8961;-59
2021/08/17 14:23:25;;;;;;;;;12.50;9.00;;;;;;;;6488350;31;9028;-60
2021/08/17 14:29:27;;;;;;;;;13.25;13.25;;;;;;;;6490367;31;8994;-62
2021/08/17 14:35:29;;;;;;;;;9.25;5.00;;;;;;;;6489072;39;8987;-63
2021/08/17 14:41:32;;;;;;;;;6.50;5.00;;;;;;;;6488598;35;8972;-62
2021/08/17 14:47:37;;;;;;;;;8.25;6.50;;;;;;;;6488882;39;9066;-62
2021/08/17 14:53:40;;;;;;;;;6.75;6.75;;;;;;;;6487860;46;9044;-62
2021/08/17 14:59:43;;;;;;;;;6.75;6.75;;;;;;;;6490744;39;8917;-62
2021/08/17 15:05:45;;;;;;;;;9.00;9.00;;;;;;;;6490775;39;8988;-62
2021/08/17 15:11:47;;;;;;;;;9.50;8.50;;;;;;;;6490274;39;9074;-62
2021/08/17 15:17:50;;;;;;;;;5.75;5.75;;;;;;;;6492236;46;9058;-62
2021/08/17 15:23:53;;;;;;;;;6.50;6.25;;;;;;;;6494580;31;8995;-61
2021/08/17 15:29:55;;;;;;;;;7.25;7.25;;;;;;;;6494242;39;8923;-61
2021/08/17 15:35:57;;;;;;;;;9.00;7.25;;;;;;;;6494416;39;8996;-62
2021/08/17 15:42:13;;;;;;;;;5.50;5.50;;;;;;;;6494413;39;8970;-62
2021/08/17 15:48:17;;;;;;;;;9.25;6.75;;;;;;;;6494817;39;9031;-62
2021/08/17 15:54:19;;;;;;;;;9.00;9.00;;;;;;;;6494231;39;8974;-62
2021/08/17 16:00:23;;;;;;;;;8.50;8.50;;;;;;;;6494532;46;8971;-61
2021/08/17 16:06:29;;;;;;;;;15.75;11.50;;;;;;;;6494637;31;9029;-64
2021/08/17 16:12:32;;;;;;;;;9.50;9.50;;;;;;;;6494062;39;9035;-64
2021/08/17 16:18:34;;;;;;;;;9.25;9.25;;;;;;;;6494413;39;9008;-61
2021/08/17 16:24:36;;;;;;;;;9.00;9.00;;;;;;;;6493122;39;8964;-62
2021/08/17 16:30:40;;;;;;;;;10.75;10.00;;;;;;;;6491967;46;9066;-62
2021/08/17 16:36:42;;;;;;;;;7.75;7.75;;;;;;;;6492018;39;9028;-61
2021/08/17 16:42:46;;;;;;;;;10.25;7.00;;;;;;;;6490890;46;9023;-62
2021/08/17 16:48:48;;;;;;;;;6.00;6.00;;;;;;;;6491523;39;8952;-63
2021/08/17 16:54:51;;;;;;;;;10.75;10.25;;;;;;;;6491128;46;9067;-62
2021/08/17 17:00:53;;;;;;;;;13.50;12.50;;;;;;;;6491524;39;9078;-61
2021/08/17 17:06:57;;;;;;;;;10.50;9.50;;;;;;;;6491550;31;9744;-61
2021/08/17 17:13:01;;;;;;;;;16.50;15.00;;;;;;;;6491748;39;9110;-62
2021/08/17 17:19:04;;;;;;;;;11.75;11.75;;;;;;;;6491554;46;9055;-62
2021/08/17 17:25:08;;;;;;;;;22.25;22.25;;;;;;;;6490877;39;8971;-61
2021/08/17 17:31:10;;;;;;;;;37.75;35.25;;;;;;;;6491625;39;9168;-61
2021/08/17 17:37:12;;;;;;;;;22.75;21.25;;;;;;;;6490402;31;9196;-61
2021/08/17 17:43:15;;;;;;;;;25.25;21.75;;;;;;;;6490457;46;8975;-65
2021/08/17 17:49:17;;;;;;;;;16.50;14.25;;;;;;;;6491091;39;9149;-61
2021/08/17 17:55:19;;;;;;;;;13.25;12.75;;;;;;;;6489677;46;8975;-62
2021/08/17 18:01:22;;;;;;;;;14.00;13.75;;;;;;;;6490343;39;8996;-62
2021/08/17 18:07:25;;;;;;;;;15.25;14.50;;;;;;;;6490789;46;8971;-62
2021/08/17 18:13:27;;;;;;;;;14.25;13.25;;;;;;;;6491010;39;8976;-63
2021/08/17 18:19:29;;;;;;;;;17.00;16.75;;;;;;;;6490620;46;9062;-61
2021/08/17 18:25:38;;;;;;;;;13.25;13.25;;;;;;;;6490425;39;8983;-60
2021/08/17 18:31:41;;;;;;;;;14.25;13.25;;;;;;;;6491756;39;8986;-61
2021/08/17 18:37:45;;;;;;;;;20.50;18.25;;;;;;;;6490728;39;8968;-63
2021/08/17 18:43:49;;;;;;;;;14.75;14.25;;;;;;;;6490996;39;9010;-61
2021/08/17 18:49:51;;;;;;;;;15.00;13.25;;;;;;;;6490278;39;9472;-61
2021/08/17 18:55:53;;;;;;;;;15.00;15.00;;;;;;;;6490354;39;8971;-62
2021/08/17 19:01:56;;;;;;;;;13.00;11.75;;;;;;;;6490471;39;9742;-62
2021/08/17 19:07:58;;;;;;;;;13.25;13.25;;;;;;;;6490140;46;8975;-63
2021/08/17 19:14:00;;;;;;;;;14.00;14.00;;;;;;;;6490594;39;8949;-62
2021/08/17 19:20:05;;;;;;;;;13.25;13.25;;;;;;;;6490176;39;9082;-63
2021/08/17 19:26:08;;;;;;;;;15.25;15.25;;;;;;;;6490511;39;8937;-62
2021/08/17 19:32:11;;;;;;;;;14.00;12.00;;;;;;;;6491220;31;9083;-62
2021/08/17 19:38:13;;;;;;;;;15.00;15.00;;;;;;;;6489534;47;8999;-62
2021/08/17 19:44:16;;;;;;;;;12.00;12.00;;;;;;;;6490210;39;8955;-62
2021/08/17 19:50:18;;;;;;;;;13.75;13.25;;;;;;;;6490087;39;9016;-63
2021/08/17 19:56:20;;;;;;;;;12.67;12.00;;;;;;;;6490420;39;9686;-62
2021/08/17 20:02:23;;;;;;;;;12.75;11.50;;;;;;;;6490544;31;9103;-62
2021/08/17 20:08:25;;;;;;;;;1.00;1.00;;;;;;;;6491349;46;8923;-62
2021/08/17 20:14:27;;;;;;;;;16.25;16.00;;;;;;;;6491323;39;8972;-62
2021/08/17 20:20:29;;;;;;;;;11.25;11.25;;;;;;;;6491959;31;9783;-62
2021/08/17 20:26:31;;;;;;;;;15.25;13.00;;;;;;;;6490921;39;8991;-62
2021/08/17 20:32:34;;;;;;;;;11.50;11.50;;;;;;;;6492503;39;9855;-61
2021/08/17 20:38:37;;;;;;;;;11.75;10.75;;;;;;;;6491030;31;9817;-61
2021/08/17 20:44:39;;;;;;;;;10.00;10.00;;;;;;;;6491663;46;8985;-61
2021/08/17 20:50:42;;;;;;;;;13.25;13.25;;;;;;;;6491689;39;9670;-62
2021/08/17 20:56:44;;;;;;;;;13.50;13.50;;;;;;;;6491116;39;8971;-62
2021/08/17 21:02:47;;;;;;;;;16.50;14.00;;;;;;;;6490865;39;9237;-61
2021/08/17 21:08:49;;;;;;;;;16.00;13.25;;;;;;;;6491138;31;8979;-62
2021/08/17 21:14:51;;;;;;;;;12.00;12.00;;;;;;;;6491656;39;8981;-63
2021/08/17 21:20:54;;;;;;;;;15.50;15.00;;;;;;;;6491869;39;8955;-62
2021/08/17 21:26:56;;;;;;;;;10.25;9.25;;;;;;;;6491217;46;9056;-62
2021/08/17 21:32:59;;;;;;;;;16.50;14.75;;;;;;;;6492009;39;8967;-61
2021/08/17 21:39:01;;;;;;;;;9.25;9.00;;;;;;;;6490785;39;8948;-61
2021/08/17 21:45:04;;;;;;;;;13.75;11.25;;;;;;;;6492142;39;8943;-62
2021/08/17 21:51:07;;;;;;;;;14.25;12.75;;;;;;;;6490833;31;8961;-61
2021/08/17 21:57:10;;;;;;;;;9.50;9.50;;;;;;;;6490931;39;9640;-63
2021/08/17 22:03:12;;;;;;;;;11.25;11.25;;;;;;;;6490654;46;9060;-61
2021/08/17 22:09:14;;;;;;;;;12.00;12.00;;;;;;;;6490505;46;8963;-61
2021/08/17 22:15:17;;;;;;;;;12.00;11.50;;;;;;;;6491105;31;8981;-61
2021/08/17 22:21:22;;;;;;;;;16.00;16.00;;;;;;;;6490127;46;9016;-61
2021/08/17 22:27:27;;;;;;;;;10.00;10.00;;;;;;;;6489950;46;8991;-62
2021/08/17 22:33:29;;;;;;;;;11.00;11.00;;;;;;;;6490600;31;8963;-62
2021/08/17 22:39:31;;;;;;;;;14.25;11.25;;;;;;;;6490630;39;9584;-61
2021/08/17 22:45:34;;;;;;;;;12.00;12.00;;;;;;;;6490441;46;8916;-62
2021/08/17 22:51:36;;;;;;;;;16.75;15.50;;;;;;;;6490495;39;9702;-61
2021/08/17 22:57:38;;;;;;;;;16.25;15.25;;;;;;;;6491272;39;9006;-61
2021/08/17 23:03:40;;;;;;;;;20.33;18.00;;;;;;;;6490851;39;9013;-62
2021/08/17 23:09:42;;;;;;;;;20.67;18.33;;;;;;;;6490486;31;9022;-62
2021/08/17 23:15:44;;;;;;;;;16.67;14.00;;;;;;;;6491271;31;8937;-61
2021/08/17 23:21:47;;;;;;;;;17.00;14.33;;;;;;;;6489453;47;8963;-61
2021/08/17 23:27:50;;;;;;;;;15.00;14.67;;;;;;;;6490068;39;8968;-62
2021/08/17 23:33:52;;;;;;;;;15.67;14.67;;;;;;;;6490481;39;8975;-62
2021/08/17 23:39:54;;;;;;;;;15.67;12.33;;;;;;;;6491109;46;9019;-62
2021/08/17 23:45:58;;;;;;;;;16.00;15.00;;;;;;;;6491999;46;8967;-61
2021/08/17 23:52:00;;;;;;;;;13.33;13.00;;;;;;;;6329771;36;10002657;-61
2021/08/17 23:58:03;;;;;;;;;19.00;16.00;;;;;;;;6491412;46;9053;-62
